Terminal Aerodrome Forecast
Issued by NWS Shreveport, LA

Home | Current Version | Previous Version | Text Only | Print | Product List | Glossary On
Versions: 1 2 3 4 5 6 7 8 9 10 11 12 13 14 15
619
FTUS44 KSHV 280524
TAFLFK
TAF
KLFK 280524Z 2806/2906 00000KT P6SM SCT250
      TEMPO 2809/2813 3SM BR
     FM281500 06004KT P6SM SCT035
     FM290200 00000KT P6SM SCT250=

USA.gov is the U.S. government's official web portal to all federal, state and local government web resources and services.